カシュガル の空港の天気 - METARとTAF

カシュガル空港 ( ZWSH / KHG ) - 中国 新疆ウイグル自治区カシュガル市
飛行場実況気象(Metar)
観測時間06/18 03:00 CST (06/17 19:00 UTC)
風向・風速北西 6m/s
視程10km以上
天気現象
なし
気温25℃
湿度13%
気圧1009hPa
METARZWSH 171900Z 32006MPS CAVOK 25/M05 Q1009 NOSIG
過去の天気等 Google飛行場航空写真 Wunderground天気予報

過去48時間のMETAR

飛行場予報(TAF)
発表時間: 6/17 23:03 CST (6/17 15:03 UTC)
予報対象時間: 18日2時 CST ~ 19日2時 CST
風向・風速北北西 4m/s
視程10km以上
全天の4割程度の雲 雲底高度 1220m
18日12時 CST ~ 18日13時 CST に徐々に
風向・風速東南東 4m/s
TAF ZWSH 171503Z 1718/1818 33004MPS 9999 SCT040 TX29/1809Z TN19/1800Z
BECMG 1804/1805 12004MPS